Terminal Aerodrome Forecast
Issued by NWS

Home | Current Version | Previous Version | Text Only | Print | Product List | Glossary On
Versions: 1 2 3 4 5 6 7 8 9 10 11 12 13 14 15 16 17
000
FTUS46 KSGX 311700
TAFSNA
TAF
KSNA 311729Z 3118/0118 VRB04KT P6SM SCT035 BKN045
     FM312100 22008KT P6SM BKN045
     FM010200 21007KT P6SM VCSH BKN025 BKN045
     FM010700 19011G18KT 6SM -SHRA BR FEW010 BKN015 OVC040
     FM011300 22010KT P6SM VCSH SCT015 OVC045=

USA.gov is the U.S. government's official web portal to all federal, state and local government web resources and services.